Time;durP1;ratioP1;P1;durP2;ratioP2;P2;SDS_P1;SDS_P2;PMS_P1;PMS_P2;Temp;Humidity;BMP_temperature;BMP_pressure;BME280_temperature;BME280_humidity;BME280_pressure;Samples;Min_cycle;Max_cycle;Signal;HPM_P1;HPM_P2
2023/06/30 00:01:21;;;;;;;8.90;5.80;;;;;;;;;;4992985;28;20979;-81
2023/06/30 00:03:47;;;;;;;5.77;4.30;;;;;;;;;;4994017;28;20753;-81
2023/06/30 00:06:13;;;;;;;5.20;3.77;;;;;;;;;;5009135;28;20433;-81
2023/06/30 00:08:39;;;;;;;4.53;2.40;;;;;;;;;;4993895;28;20410;-81
2023/06/30 00:11:05;;;;;;;4.93;2.20;;;;;;;;;;4993158;28;20540;-81
2023/06/30 00:13:30;;;;;;;5.23;2.30;;;;;;;;;;4992700;28;20431;-81
2023/06/30 00:15:56;;;;;;;3.83;1.80;;;;;;;;;;4993858;28;20552;-81
2023/06/30 00:18:32;;;;;;;4.03;2.00;;;;;;;;;;4993741;28;20333;-81
2023/06/30 00:20:57;;;;;;;2.47;1.10;;;;;;;;;;4993841;28;20186;-81
2023/06/30 00:23:27;;;;;;;4.07;2.60;;;;;;;;;;4993840;28;20422;-81
2023/06/30 00:25:53;;;;;;;4.70;2.00;;;;;;;;;;4993727;28;20187;-81
2023/06/30 00:28:19;;;;;;;2.13;1.47;;;;;;;;;;4993379;28;20923;-81
2023/06/30 00:30:45;;;;;;;3.70;1.50;;;;;;;;;;4993731;28;20176;-81
2023/06/30 00:33:10;;;;;;;3.93;1.13;;;;;;;;;;4993640;28;20178;-81
2023/06/30 00:35:39;;;;;;;2.13;0.50;;;;;;;;;;4993595;28;20417;-81
2023/06/30 00:38:05;;;;;;;2.30;0.70;;;;;;;;;;4993535;28;20246;-79
2023/06/30 00:40:31;;;;;;;1.30;0.60;;;;;;;;;;4993669;28;20490;-80
2023/06/30 00:43:00;;;;;;;1.47;0.53;;;;;;;;;;5008531;28;20406;-81
2023/06/30 00:45:26;;;;;;;2.57;0.50;;;;;;;;;;4993526;28;20474;-80
2023/06/30 00:47:52;;;;;;;1.37;0.70;;;;;;;;;;4993603;28;20422;-81
2023/06/30 00:50:18;;;;;;;1.10;0.60;;;;;;;;;;4993330;28;20180;-80
2023/06/30 00:52:45;;;;;;;4.13;0.20;;;;;;;;;;4993540;28;20176;-81
2023/06/30 00:55:12;;;;;;;2.20;0.30;;;;;;;;;;4993618;28;20412;-81
2023/06/30 00:57:38;;;;;;;1.20;0.33;;;;;;;;;;4993048;28;20497;-81
2023/06/30 01:00:10;;;;;;;2.13;0.30;;;;;;;;;;4993547;28;20417;-81
2023/06/30 01:02:37;;;;;;;3.33;0.57;;;;;;;;;;4993467;28;20411;-81
2023/06/30 01:05:12;;;;;;;3.53;0.30;;;;;;;;;;4992259;28;20426;-82
2023/06/30 01:07:41;;;;;;;2.50;0.40;;;;;;;;;;4995708;28;20426;-81
2023/06/30 01:10:10;;;;;;;3.20;0.43;;;;;;;;;;4997264;28;21036;-81
2023/06/30 01:12:36;;;;;;;3.13;0.53;;;;;;;;;;4997149;28;20443;-81
2023/06/30 01:15:02;;;;;;;2.47;0.30;;;;;;;;;;4997241;28;20468;-81
2023/06/30 01:17:29;;;;;;;3.00;0.40;;;;;;;;;;4996013;28;20469;-81
2023/06/30 01:19:56;;;;;;;2.10;0.50;;;;;;;;;;4997275;28;20476;-81
2023/06/30 01:22:22;;;;;;;2.00;0.57;;;;;;;;;;4995986;28;20433;-81
2023/06/30 01:24:49;;;;;;;2.80;0.37;;;;;;;;;;4997214;28;20900;-81
2023/06/30 01:27:15;;;;;;;1.40;0.30;;;;;;;;;;4996784;28;20426;-81
2023/06/30 01:29:42;;;;;;;3.57;0.50;;;;;;;;;;4997174;28;20418;-81
2023/06/30 01:32:08;;;;;;;4.40;0.40;;;;;;;;;;4997094;28;20423;-81
2023/06/30 01:34:37;;;;;;;1.23;0.27;;;;;;;;;;4997053;28;20422;-81
2023/06/30 01:37:03;;;;;;;3.07;0.40;;;;;;;;;;4996892;28;20418;-82
2023/06/30 01:39:29;;;;;;;2.47;0.90;;;;;;;;;;4996724;28;20873;-81
2023/06/30 01:41:55;;;;;;;4.17;0.60;;;;;;;;;;4996585;28;20410;-81
2023/06/30 01:44:21;;;;;;;7.70;0.30;;;;;;;;;;4996798;28;20195;-81
2023/06/30 01:46:47;;;;;;;1.80;0.40;;;;;;;;;;4996772;28;20415;-81
2023/06/30 01:49:13;;;;;;;0.93;0.33;;;;;;;;;;4996745;28;20422;-82
2023/06/30 01:51:39;;;;;;;3.43;0.40;;;;;;;;;;4996688;28;20206;-81
2023/06/30 01:54:05;;;;;;;1.00;0.30;;;;;;;;;;4996665;28;20446;-82
2023/06/30 01:56:31;;;;;;;2.17;0.97;;;;;;;;;;4996268;28;20624;-81
2023/06/30 01:58:57;;;;;;;2.80;0.73;;;;;;;;;;4996412;28;20474;-81
2023/06/30 02:01:23;;;;;;;1.73;0.57;;;;;;;;;;4996510;28;20207;-81
2023/06/30 02:03:50;;;;;;;4.77;0.57;;;;;;;;;;4996401;28;20179;-81
2023/06/30 02:06:16;;;;;;;4.40;0.97;;;;;;;;;;4996434;28;20195;-81
2023/06/30 02:08:42;;;;;;;2.87;0.70;;;;;;;;;;4996159;28;20782;-81
2023/06/30 02:11:08;;;;;;;2.47;0.63;;;;;;;;;;4996332;28;20265;-81
2023/06/30 02:13:34;;;;;;;1.87;0.43;;;;;;;;;;4995912;28;20428;-82
2023/06/30 02:16:00;;;;;;;1.93;0.53;;;;;;;;;;4996267;28;20182;-81
2023/06/30 02:18:26;;;;;;;1.77;0.70;;;;;;;;;;4995994;28;20484;-81
2023/06/30 02:20:52;;;;;;;4.43;0.80;;;;;;;;;;4995991;28;20410;-82
2023/06/30 02:23:18;;;;;;;4.17;0.53;;;;;;;;;;4995998;28;20423;-81
2023/06/30 02:25:43;;;;;;;2.10;0.57;;;;;;;;;;4995986;28;20403;-81
2023/06/30 02:28:09;;;;;;;4.10;0.43;;;;;;;;;;4994443;28;20419;-81
2023/06/30 02:30:35;;;;;;;3.77;0.53;;;;;;;;;;4995948;28;20176;-81
2023/06/30 02:33:01;;;;;;;2.93;0.53;;;;;;;;;;4995936;28;20179;-81
2023/06/30 02:35:28;;;;;;;2.80;0.77;;;;;;;;;;4995817;28;20462;-80
2023/06/30 02:37:54;;;;;;;2.60;0.60;;;;;;;;;;4995587;28;20199;-81
2023/06/30 02:40:19;;;;;;;4.23;0.70;;;;;;;;;;4995849;28;20425;-81
2023/06/30 02:42:45;;;;;;;3.07;0.73;;;;;;;;;;4995534;28;20914;-80
2023/06/30 02:45:11;;;;;;;2.63;0.53;;;;;;;;;;4995718;28;20176;-81
2023/06/30 02:47:38;;;;;;;4.27;0.50;;;;;;;;;;4996037;28;20462;-81
2023/06/30 02:50:05;;;;;;;4.03;0.60;;;;;;;;;;4995848;28;20418;-81
2023/06/30 02:52:30;;;;;;;2.97;0.77;;;;;;;;;;4995511;28;20464;-80
2023/06/30 02:54:56;;;;;;;4.57;1.00;;;;;;;;;;4995498;28;20790;-81
2023/06/30 02:57:22;;;;;;;2.10;0.40;;;;;;;;;;4995026;28;20186;-81
2023/06/30 02:59:48;;;;;;;1.77;0.53;;;;;;;;;;4995398;28;20216;-81
2023/06/30 03:02:14;;;;;;;3.37;1.30;;;;;;;;;;4995425;28;20914;-81
2023/06/30 03:04:40;;;;;;;2.93;0.90;;;;;;;;;;4995365;28;20179;-81
2023/06/30 03:07:06;;;;;;;3.90;1.00;;;;;;;;;;4995214;28;20411;-81
2023/06/30 03:09:32;;;;;;;4.13;0.67;;;;;;;;;;4995098;28;20695;-81
2023/06/30 03:11:58;;;;;;;2.43;1.33;;;;;;;;;;4994869;28;20945;-81
2023/06/30 03:14:24;;;;;;;3.47;1.33;;;;;;;;;;4995172;28;20186;-82
2023/06/30 03:16:50;;;;;;;3.30;0.50;;;;;;;;;;4995044;28;20539;-81
2023/06/30 03:19:16;;;;;;;3.17;0.93;;;;;;;;;;4995169;28;20233;-81
2023/06/30 03:21:44;;;;;;;4.13;1.13;;;;;;;;;;4995042;28;20423;-82
2023/06/30 03:24:10;;;;;;;6.10;1.10;;;;;;;;;;4994919;28;20422;-82
2023/06/30 03:26:36;;;;;;;2.60;0.77;;;;;;;;;;4993358;28;20422;-80
2023/06/30 03:29:02;;;;;;;3.63;0.70;;;;;;;;;;4994507;28;20179;-81
2023/06/30 03:31:28;;;;;;;5.77;0.60;;;;;;;;;;4994649;28;20419;-81
2023/06/30 03:33:54;;;;;;;2.60;0.77;;;;;;;;;;4993361;28;20439;-81
2023/06/30 03:36:20;;;;;;;3.40;0.57;;;;;;;;;;4994679;28;20183;-81
2023/06/30 03:38:46;;;;;;;1.80;0.60;;;;;;;;;;4994545;28;20207;-81
2023/06/30 03:41:12;;;;;;;2.20;0.50;;;;;;;;;;4994314;28;20418;-82
2023/06/30 03:43:38;;;;;;;5.33;0.37;;;;;;;;;;4994611;28;20510;-82
2023/06/30 03:46:06;;;;;;;2.83;0.60;;;;;;;;;;4994636;28;20164;-81
2023/06/30 03:48:32;;;;;;;4.90;0.63;;;;;;;;;;4994501;28;20190;-81
2023/06/30 03:50:58;;;;;;;1.97;0.53;;;;;;;;;;4994489;28;20415;-82
2023/06/30 03:53:24;;;;;;;4.80;0.50;;;;;;;;;;4994470;28;20202;-82
2023/06/30 03:55:50;;;;;;;4.90;0.70;;;;;;;;;;4994527;28;20531;-81
2023/06/30 03:58:16;;;;;;;4.83;0.60;;;;;;;;;;4993790;28;20485;-81
2023/06/30 04:00:41;;;;;;;4.50;0.70;;;;;;;;;;4993582;28;20427;-81
2023/06/30 04:03:07;;;;;;;2.00;0.57;;;;;;;;;;4994187;28;20502;-81
2023/06/30 04:05:33;;;;;;;3.13;0.47;;;;;;;;;;4994224;28;20263;-81
2023/06/30 04:07:59;;;;;;;2.00;0.40;;;;;;;;;;4994223;28;20682;-81
2023/06/30 04:10:25;;;;;;;2.47;0.50;;;;;;;;;;4992673;28;20991;-82
2023/06/30 04:12:51;;;;;;;2.23;0.33;;;;;;;;;;4993665;28;20255;-81
2023/06/30 04:15:17;;;;;;;2.50;0.40;;;;;;;;;;4994061;28;20282;-81
2023/06/30 04:17:43;;;;;;;4.20;0.40;;;;;;;;;;4993907;28;20415;-81
2023/06/30 04:20:09;;;;;;;1.90;0.30;;;;;;;;;;4993996;28;20431;-81
2023/06/30 04:22:38;;;;;;;4.50;0.43;;;;;;;;;;4993833;28;20178;-81
2023/06/30 04:25:07;;;;;;;2.30;0.53;;;;;;;;;;4993902;28;20938;-80
2023/06/30 04:27:33;;;;;;;3.87;0.57;;;;;;;;;;4991847;28;20778;-81
2023/06/30 04:30:00;;;;;;;3.00;0.40;;;;;;;;;;4992692;28;20425;-80
2023/06/30 04:32:26;;;;;;;3.13;0.70;;;;;;;;;;4993821;28;20506;-81
2023/06/30 04:34:52;;;;;;;1.70;0.43;;;;;;;;;;4992502;28;20509;-81
2023/06/30 04:37:18;;;;;;;4.33;0.60;;;;;;;;;;4992550;28;20180;-81
2023/06/30 04:39:45;;;;;;;2.40;0.50;;;;;;;;;;4993644;28;20211;-81
2023/06/30 04:42:13;;;;;;;2.50;0.87;;;;;;;;;;4991324;28;20172;-81
2023/06/30 04:44:38;;;;;;;1.93;0.40;;;;;;;;;;4993643;28;20553;-81
2023/06/30 04:47:04;;;;;;;5.97;0.80;;;;;;;;;;4992341;28;20986;-81
2023/06/30 04:49:30;;;;;;;3.90;0.80;;;;;;;;;;4993672;28;20174;-82
2023/06/30 04:51:56;;;;;;;0.80;0.40;;;;;;;;;;4993653;28;20416;-81
2023/06/30 04:54:22;;;;;;;2.77;0.50;;;;;;;;;;4993529;28;20921;-81
2023/06/30 04:56:48;;;;;;;4.40;0.60;;;;;;;;;;4993263;28;20172;-80
2023/06/30 04:59:14;;;;;;;2.00;0.40;;;;;;;;;;4993403;28;20562;-81
2023/06/30 05:01:40;;;;;;;3.63;0.80;;;;;;;;;;4993465;28;20567;-81
2023/06/30 05:04:06;;;;;;;3.13;0.50;;;;;;;;;;4993478;28;20221;-81
2023/06/30 05:06:32;;;;;;;4.73;0.60;;;;;;;;;;4993418;28;20172;-81
2023/06/30 05:08:58;;;;;;;1.17;0.40;;;;;;;;;;4993252;28;20230;-81
2023/06/30 05:11:23;;;;;;;2.30;0.77;;;;;;;;;;4993135;28;20411;-81
2023/06/30 05:13:49;;;;;;;2.10;0.47;;;;;;;;;;4993320;28;20234;-81
2023/06/30 05:16:15;;;;;;;1.10;0.30;;;;;;;;;;4993482;28;20179;-81
2023/06/30 05:18:41;;;;;;;3.30;0.73;;;;;;;;;;4993386;28;20470;-81
2023/06/30 05:21:08;;;;;;;4.33;1.00;;;;;;;;;;4993354;28;20183;-80
2023/06/30 05:23:34;;;;;;;2.00;0.40;;;;;;;;;;4993371;28;20403;-81
2023/06/30 05:26:00;;;;;;;3.70;0.83;;;;;;;;;;4992978;28;20909;-81
2023/06/30 05:28:26;;;;;;;1.73;0.47;;;;;;;;;;4993219;28;20449;-81
2023/06/30 05:30:52;;;;;;;2.27;0.73;;;;;;;;;;4991967;28;20257;-82
2023/06/30 05:33:18;;;;;;;3.30;0.63;;;;;;;;;;4993211;28;20444;-82
2023/06/30 05:35:44;;;;;;;3.80;0.93;;;;;;;;;;4993211;28;20767;-82
2023/06/30 05:38:10;;;;;;;3.80;1.30;;;;;;;;;;4993067;28;20863;-82
2023/06/30 05:40:36;;;;;;;2.50;0.40;;;;;;;;;;4993121;28;20884;-83
2023/06/30 05:43:02;;;;;;;1.40;0.40;;;;;;;;;;4992328;28;20305;-84
2023/06/30 05:45:27;;;;;;;5.07;0.60;;;;;;;;;;4993041;28;20550;-84
2023/06/30 05:47:53;;;;;;;1.60;0.53;;;;;;;;;;4993098;28;20426;-82
2023/06/30 05:50:21;;;;;;;3.03;0.70;;;;;;;;;;4993048;28;20234;-85
2023/06/30 05:52:48;;;;;;;1.30;0.40;;;;;;;;;;4993954;28;20177;-84
2023/06/30 05:55:14;;;;;;;1.63;0.60;;;;;;;;;;4995408;28;20420;-82
2023/06/30 05:57:40;;;;;;;1.70;0.90;;;;;;;;;;4996043;28;20414;-84
2023/06/30 06:00:07;;;;;;;2.67;0.87;;;;;;;;;;4995193;28;20434;-85
2023/06/30 06:02:33;;;;;;;2.40;0.67;;;;;;;;;;4995248;28;20189;-83
2023/06/30 06:04:59;;;;;;;2.20;0.43;;;;;;;;;;4996488;28;20829;-82
2023/06/30 06:07:28;;;;;;;2.73;0.60;;;;;;;;;;4996408;28;20175;-82
2023/06/30 06:09:54;;;;;;;3.97;1.87;;;;;;;;;;4996146;28;20265;-84
2023/06/30 06:12:20;;;;;;;3.40;0.73;;;;;;;;;;4995971;28;20435;-83
2023/06/30 06:14:46;;;;;;;2.00;1.13;;;;;;;;;;4996396;28;20187;-83
2023/06/30 06:17:11;;;;;;;1.97;0.97;;;;;;;;;;4996270;28;20914;-82
2023/06/30 06:19:37;;;;;;;2.00;1.20;;;;;;;;;;4994934;28;20218;-82
2023/06/30 06:22:03;;;;;;;3.97;2.00;;;;;;;;;;4996174;28;20172;-82
2023/06/30 06:24:30;;;;;;;1.40;0.73;;;;;;;;;;4996021;28;20203;-81
2023/06/30 06:26:56;;;;;;;5.37;1.47;;;;;;;;;;4995760;28;20399;-81
2023/06/30 06:29:22;;;;;;;5.07;2.50;;;;;;;;;;4996021;28;20185;-81
2023/06/30 06:31:49;;;;;;;4.23;1.90;;;;;;;;;;4995998;28;20921;-82
2023/06/30 06:34:15;;;;;;;5.07;1.93;;;;;;;;;;4995928;28;20430;-82
2023/06/30 06:36:41;;;;;;;3.53;1.20;;;;;;;;;;4995877;28;20980;-82
2023/06/30 06:39:07;;;;;;;3.07;1.60;;;;;;;;;;4995717;28;20574;-81
2023/06/30 06:41:33;;;;;;;5.33;2.20;;;;;;;;;;4995397;28;20185;-81
2023/06/30 06:43:59;;;;;;;2.87;1.43;;;;;;;;;;4994652;28;20175;-81
2023/06/30 06:46:25;;;;;;;2.27;1.00;;;;;;;;;;4995737;28;20478;-82
2023/06/30 06:48:50;;;;;;;2.43;1.40;;;;;;;;;;4995718;28;20624;-84
2023/06/30 06:51:17;;;;;;;3.87;1.40;;;;;;;;;;4995672;28;20407;-84
2023/06/30 06:53:43;;;;;;;2.57;1.00;;;;;;;;;;4994324;28;20422;-82
2023/06/30 06:56:09;;;;;;;2.77;1.90;;;;;;;;;;4995156;28;20513;-83
2023/06/30 06:58:35;;;;;;;2.20;1.00;;;;;;;;;;4995425;28;20469;-83
2023/06/30 07:01:01;;;;;;;2.10;0.60;;;;;;;;;;4995476;28;20582;-82
2023/06/30 07:03:27;;;;;;;1.93;0.53;;;;;;;;;;4995395;28;20409;-84
2023/06/30 07:05:55;;;;;;;2.40;0.50;;;;;;;;;;4994438;28;20433;-84
2023/06/30 07:08:20;;;;;;;2.70;0.83;;;;;;;;;;4995244;28;20514;-81
2023/06/30 07:10:47;;;;;;;3.00;0.73;;;;;;;;;;4993520;28;20557;-81
2023/06/30 07:13:14;;;;;;;1.30;0.70;;;;;;;;;;4995234;28;20422;-84
2023/06/30 07:15:40;;;;;;;1.23;0.50;;;;;;;;;;4995170;28;20423;-83
2023/06/30 07:18:06;;;;;;;2.47;0.50;;;;;;;;;;4995088;28;20458;-81
2023/06/30 07:20:32;;;;;;;1.53;0.40;;;;;;;;;;4993826;28;20432;-82
2023/06/30 07:22:58;;;;;;;1.87;0.90;;;;;;;;;;4995009;28;20182;-81
2023/06/30 07:25:25;;;;;;;2.90;0.63;;;;;;;;;;4994932;28;20418;-83
2023/06/30 07:27:53;;;;;;;3.03;0.80;;;;;;;;;;4994604;28;20401;-82
2023/06/30 07:30:24;;;;;;;3.67;1.03;;;;;;;;;;4994880;28;20422;-81
2023/06/30 07:32:50;;;;;;;2.93;0.70;;;;;;;;;;4994815;28;20407;-81
2023/06/30 07:35:17;;;;;;;4.63;0.67;;;;;;;;;;4994745;28;20922;-82
2023/06/30 07:37:43;;;;;;;2.37;0.73;;;;;;;;;;4994681;28;20403;-81
2023/06/30 07:40:09;;;;;;;4.40;0.80;;;;;;;;;;4993460;28;20431;-83
2023/06/30 07:42:38;;;;;;;3.57;0.60;;;;;;;;;;4994373;28;20411;-83
2023/06/30 07:45:04;;;;;;;2.43;0.57;;;;;;;;;;4994609;28;20457;-81
2023/06/30 07:47:30;;;;;;;5.80;0.70;;;;;;;;;;4994450;28;20973;-82
2023/06/30 07:49:56;;;;;;;1.70;0.40;;;;;;;;;;4994869;28;20498;-81
2023/06/30 07:52:22;;;;;;;2.40;0.60;;;;;;;;;;4994524;28;20206;-81
2023/06/30 07:54:51;;;;;;;2.17;0.40;;;;;;;;;;4994455;28;20211;-82
2023/06/30 07:57:17;;;;;;;1.73;0.50;;;;;;;;;;4994061;28;20407;-82
2023/06/30 07:59:43;;;;;;;2.40;0.50;;;;;;;;;;4994228;28;20480;-81
2023/06/30 08:02:09;;;;;;;1.37;0.50;;;;;;;;;;4993105;28;20624;-83
2023/06/30 08:04:35;;;;;;;2.10;0.60;;;;;;;;;;4994343;28;20194;-82
2023/06/30 08:07:01;;;;;;;1.87;0.70;;;;;;;;;;4994327;28;20534;-81
2023/06/30 08:09:27;;;;;;;2.10;0.60;;;;;;;;;;4993999;28;20529;-83
2023/06/30 08:11:53;;;;;;;2.40;0.40;;;;;;;;;;4993882;28;20172;-82
2023/06/30 08:14:19;;;;;;;2.20;0.50;;;;;;;;;;4994132;28;20171;-81
2023/06/30 08:16:45;;;;;;;2.13;0.60;;;;;;;;;;4994003;28;20835;-82
2023/06/30 08:19:11;;;;;;;3.30;0.83;;;;;;;;;;4994086;28;20212;-82
2023/06/30 08:21:37;;;;;;;2.40;0.30;;;;;;;;;;4994060;28;20467;-82
2023/06/30 08:24:03;;;;;;;3.10;0.63;;;;;;;;;;4993975;28;20518;-81
2023/06/30 08:26:28;;;;;;;3.10;0.30;;;;;;;;;;4993611;28;20176;-82
2023/06/30 08:28:55;;;;;;;1.60;0.30;;;;;;;;;;4993932;28;20514;-82
2023/06/30 08:31:21;;;;;;;1.60;0.20;;;;;;;;;;4993564;28;20179;-82
2023/06/30 08:33:47;;;;;;;2.30;0.40;;;;;;;;;;4993821;28;20514;-82
2023/06/30 08:36:13;;;;;;;3.17;0.50;;;;;;;;;;4993754;28;20406;-82
2023/06/30 08:38:39;;;;;;;1.90;0.47;;;;;;;;;;4993682;28;20672;-81
2023/06/30 08:41:05;;;;;;;2.60;0.57;;;;;;;;;;4993409;28;20171;-81
2023/06/30 08:43:32;;;;;;;5.17;0.37;;;;;;;;;;4993740;28;20176;-81
2023/06/30 08:45:59;;;;;;;1.50;0.30;;;;;;;;;;4993712;28;20465;-80
2023/06/30 08:48:25;;;;;;;1.20;0.20;;;;;;;;;;4993635;28;20754;-80
2023/06/30 08:50:52;;;;;;;2.20;0.40;;;;;;;;;;4993661;28;20450;-83
2023/06/30 08:53:18;;;;;;;1.70;0.20;;;;;;;;;;4993586;28;20414;-81
2023/06/30 08:55:45;;;;;;;2.03;0.20;;;;;;;;;;4993227;28;20442;-81
2023/06/30 08:58:12;;;;;;;3.43;0.30;;;;;;;;;;4993391;28;20836;-81
2023/06/30 09:00:38;;;;;;;0.93;0.30;;;;;;;;;;4993561;28;20419;-80
2023/06/30 09:03:04;;;;;;;2.97;0.47;;;;;;;;;;4993551;28;20419;-81
2023/06/30 09:05:33;;;;;;;1.43;0.43;;;;;;;;;;4993523;28;20461;-81
2023/06/30 09:07:59;;;;;;;2.80;0.70;;;;;;;;;;4992203;28;20517;-81
2023/06/30 09:10:27;;;;;;;2.33;0.47;;;;;;;;;;4992896;28;20474;-81
2023/06/30 09:12:57;;;;;;;2.47;0.20;;;;;;;;;;4993432;28;20415;-80
2023/06/30 09:15:24;;;;;;;1.90;0.33;;;;;;;;;;4993503;28;20439;-81
2023/06/30 09:17:51;;;;;;;1.30;0.43;;;;;;;;;;4993371;28;20418;-81
2023/06/30 09:20:17;;;;;;;2.57;0.40;;;;;;;;;;4993406;28;20417;-80
2023/06/30 09:22:43;;;;;;;2.13;0.30;;;;;;;;;;4993312;28;20415;-80
2023/06/30 09:25:27;;;;;;;0.70;0.20;;;;;;;;;;4993316;28;20398;-80
2023/06/30 09:27:54;;;;;;;1.40;0.20;;;;;;;;;;4994366;28;20505;-81
2023/06/30 09:30:32;;;;;;;3.97;0.37;;;;;;;;;;4997090;28;20434;-80
2023/06/30 09:32:58;;;;;;;2.87;0.40;;;;;;;;;;4997171;28;20430;-80
2023/06/30 09:35:24;;;;;;;2.00;0.30;;;;;;;;;;4997003;28;20921;-80
2023/06/30 09:37:50;;;;;;;1.97;0.30;;;;;;;;;;4996883;28;20514;-81
2023/06/30 09:40:17;;;;;;;1.33;0.30;;;;;;;;;;4996581;28;20234;-80
2023/06/30 09:42:46;;;;;;;4.90;0.50;;;;;;;;;;4996902;28;20417;-80
2023/06/30 09:45:12;;;;;;;0.93;0.57;;;;;;;;;;4996822;28;20423;-81
2023/06/30 09:47:38;;;;;;;2.47;0.50;;;;;;;;;;4996793;28;20505;-80
2023/06/30 09:50:08;;;;;;;2.13;0.27;;;;;;;;;;4996793;28;20179;-80
2023/06/30 09:52:36;;;;;;;2.20;0.50;;;;;;;;;;4996749;28;20226;-81
2023/06/30 09:55:11;;;;;;;0.93;0.30;;;;;;;;;;4996669;28;20418;-82
2023/06/30 09:57:39;;;;;;;1.47;0.30;;;;;;;;;;4996662;28;20450;-81
2023/06/30 10:00:07;;;;;;;1.73;0.50;;;;;;;;;;4996547;28;20466;-83
2023/06/30 10:02:33;;;;;;;2.80;0.20;;;;;;;;;;4996574;28;20442;-84
2023/06/30 10:04:58;;;;;;;2.60;0.30;;;;;;;;;;4995198;28;20857;-82
2023/06/30 10:07:24;;;;;;;1.83;0.30;;;;;;;;;;4996499;28;20171;-81
2023/06/30 10:09:51;;;;;;;1.23;0.37;;;;;;;;;;4994699;28;20312;-81
2023/06/30 10:12:18;;;;;;;4.03;0.37;;;;;;;;;;4994777;28;20172;-81
2023/06/30 10:14:45;;;;;;;1.30;0.40;;;;;;;;;;4996350;28;20435;-81
2023/06/30 10:17:11;;;;;;;2.10;0.47;;;;;;;;;;4996322;28;20412;-81
2023/06/30 10:19:39;;;;;;;0.90;0.20;;;;;;;;;;4996213;28;20844;-81
2023/06/30 10:22:05;;;;;;;1.90;0.50;;;;;;;;;;4996195;28;20519;-82
2023/06/30 10:24:37;;;;;;;2.70;0.50;;;;;;;;;;4994858;28;20785;-82
2023/06/30 10:27:03;;;;;;;1.57;0.40;;;;;;;;;;4995937;28;20907;-82
2023/06/30 10:29:30;;;;;;;3.23;0.40;;;;;;;;;;4996037;28;20415;-81
2023/06/30 10:31:56;;;;;;;2.30;0.30;;;;;;;;;;4994776;28;20748;-81
2023/06/30 10:34:22;;;;;;;2.90;0.30;;;;;;;;;;4995905;28;20430;-81
2023/06/30 10:36:48;;;;;;;2.87;0.40;;;;;;;;;;4995951;28;20407;-82
2023/06/30 10:39:15;;;;;;;1.07;0.30;;;;;;;;;;4993207;28;20486;-82
2023/06/30 10:41:50;;;;;;;1.67;0.40;;;;;;;;;;4995515;28;20454;-82
2023/06/30 10:44:19;;;;;;;2.00;0.40;;;;;;;;;;4995766;28;20521;-83
2023/06/30 10:46:46;;;;;;;0.80;0.27;;;;;;;;;;4995767;28;20438;-82
2023/06/30 10:49:17;;;;;;;2.03;0.30;;;;;;;;;;4995746;28;20415;-83
2023/06/30 10:51:50;;;;;;;1.83;0.30;;;;;;;;;;4995583;28;20403;-81
2023/06/30 10:54:27;;;;;;;4.13;0.23;;;;;;;;;;4995339;28;20417;-82
2023/06/30 10:57:03;;;;;;;2.33;0.30;;;;;;;;;;4993823;28;20414;-82
2023/06/30 10:59:35;;;;;;;2.13;0.47;;;;;;;;;;4995465;28;20478;-82
2023/06/30 11:02:14;;;;;;;2.53;0.37;;;;;;;;;;4995421;28;20899;-83
2023/06/30 11:04:44;;;;;;;5.07;0.33;;;;;;;;;;4995309;28;20419;-80
2023/06/30 11:07:11;;;;;;;4.50;1.03;;;;;;;;;;4995297;28;20419;-82
2023/06/30 11:09:49;;;;;;;4.60;0.57;;;;;;;;;;4995095;28;20465;-81
2023/06/30 11:12:35;;;;;;;2.13;0.40;;;;;;;;;;4994871;28;20414;-82
2023/06/30 11:15:03;;;;;;;1.57;0.30;;;;;;;;;;4993560;28;20418;-81
2023/06/30 11:17:48;;;;;;;1.97;0.37;;;;;;;;;;4995200;28;20900;-82
2023/06/30 11:20:14;;;;;;;1.27;0.47;;;;;;;;;;4994972;28;20560;-82
2023/06/30 11:22:40;;;;;;;3.73;0.30;;;;;;;;;;4995075;28;20419;-82
2023/06/30 11:25:13;;;;;;;2.20;0.30;;;;;;;;;;4994707;28;20449;-83
2023/06/30 11:27:40;;;;;;;1.50;0.50;;;;;;;;;;4994955;28;20411;-82
2023/06/30 11:30:07;;;;;;;1.03;0.20;;;;;;;;;;4994853;28;20418;-82
2023/06/30 11:32:36;;;;;;;1.80;0.57;;;;;;;;;;4994837;28;20421;-82
2023/06/30 11:35:02;;;;;;;3.50;0.40;;;;;;;;;;4994820;28;20444;-82
2023/06/30 11:37:30;;;;;;;1.00;0.20;;;;;;;;;;4994767;28;20444;-82
2023/06/30 11:39:57;;;;;;;1.30;0.40;;;;;;;;;;4994173;28;20561;-82
2023/06/30 11:42:23;;;;;;;1.17;0.20;;;;;;;;;;4994640;28;20451;-81
2023/06/30 11:44:50;;;;;;;0.70;0.20;;;;;;;;;;4994616;28;20423;-81
2023/06/30 11:47:19;;;;;;;0.73;0.20;;;;;;;;;;4994582;28;20502;-82
2023/06/30 11:49:45;;;;;;;1.20;0.30;;;;;;;;;;4994639;28;20513;-81
2023/06/30 11:52:11;;;;;;;3.37;0.30;;;;;;;;;;4992825;28;20407;-81
2023/06/30 11:54:37;;;;;;;2.33;0.20;;;;;;;;;;4994212;28;20414;-82
2023/06/30 11:57:04;;;;;;;2.53;0.30;;;;;;;;;;4988560;28;20528;-82
2023/06/30 11:59:33;;;;;;;2.10;0.20;;;;;;;;;;4984441;28;20253;-82
2023/06/30 12:02:00;;;;;;;1.10;0.20;;;;;;;;;;4993678;28;21002;-82
2023/06/30 12:04:33;;;;;;;1.10;0.20;;;;;;;;;;4993598;28;20923;-82
2023/06/30 12:06:58;;;;;;;1.37;0.43;;;;;;;;;;4993569;28;20411;-82
2023/06/30 12:09:27;;;;;;;2.30;0.73;;;;;;;;;;4993301;28;20492;-82
2023/06/30 12:12:02;;;;;;;1.10;0.43;;;;;;;;;;4993262;28;20187;-82
2023/06/30 12:14:28;;;;;;;1.80;0.37;;;;;;;;;;5008444;28;20426;-82
2023/06/30 12:16:54;;;;;;;1.87;0.30;;;;;;;;;;4993203;28;20502;-82
2023/06/30 12:19:25;;;;;;;2.17;0.30;;;;;;;;;;4993343;28;20222;-83
2023/06/30 12:21:52;;;;;;;2.33;0.43;;;;;;;;;;4993648;28;20407;-83
2023/06/30 12:24:19;;;;;;;2.00;0.43;;;;;;;;;;5008791;28;20410;-83
2023/06/30 12:26:45;;;;;;;1.23;0.40;;;;;;;;;;4993157;28;20406;-83
2023/06/30 12:29:11;;;;;;;1.80;0.30;;;;;;;;;;4993487;28;20789;-82
2023/06/30 12:31:37;;;;;;;4.50;0.23;;;;;;;;;;4993490;28;20407;-82
2023/06/30 12:34:03;;;;;;;2.33;0.50;;;;;;;;;;4993530;28;20258;-83
2023/06/30 12:36:29;;;;;;;1.73;0.30;;;;;;;;;;4992985;28;20497;-83
2023/06/30 12:38:58;;;;;;;4.23;0.53;;;;;;;;;;4993087;28;20794;-83
2023/06/30 12:41:24;;;;;;;2.87;0.23;;;;;;;;;;4992967;28;20426;-80
2023/06/30 12:43:50;;;;;;;1.07;0.20;;;;;;;;;;4993330;28;20399;-83
2023/06/30 12:46:16;;;;;;;2.60;0.60;;;;;;;;;;4993269;28;20235;-83
2023/06/30 12:48:42;;;;;;;3.23;0.27;;;;;;;;;;5008247;28;20506;-83
2023/06/30 12:51:08;;;;;;;4.53;0.63;;;;;;;;;;5008350;28;20502;-84
2023/06/30 12:53:34;;;;;;;2.23;0.40;;;;;;;;;;4993169;28;20180;-82
2023/06/30 12:56:00;;;;;;;2.40;0.40;;;;;;;;;;5007850;28;20771;-82
2023/06/30 12:58:26;;;;;;;1.57;0.23;;;;;;;;;;4993098;28;20571;-83
2023/06/30 13:00:59;;;;;;;1.67;0.30;;;;;;;;;;4993145;28;20423;-81
2023/06/30 13:03:26;;;;;;;1.40;0.30;;;;;;;;;;5010387;28;20179;-83
2023/06/30 13:05:52;;;;;;;1.90;0.30;;;;;;;;;;4997285;28;20462;-81
2023/06/30 13:08:18;;;;;;;2.63;0.30;;;;;;;;;;4997157;28;20457;-82
2023/06/30 13:10:44;;;;;;;0.57;0.30;;;;;;;;;;4996593;28;20458;-83
2023/06/30 13:13:10;;;;;;;0.70;0.40;;;;;;;;;;4997114;28;20415;-82
2023/06/30 13:15:36;;;;;;;1.60;0.20;;;;;;;;;;4997037;28;20183;-83
2023/06/30 13:18:02;;;;;;;0.80;0.40;;;;;;;;;;4996964;28;20172;-82
2023/06/30 13:20:28;;;;;;;3.57;0.40;;;;;;;;;;4996868;28;20437;-84
2023/06/30 13:22:54;;;;;;;1.30;0.33;;;;;;;;;;4996830;28;20176;-82
2023/06/30 13:25:20;;;;;;;1.37;0.20;;;;;;;;;;5011682;28;20180;-84
2023/06/30 13:27:46;;;;;;;1.60;0.27;;;;;;;;;;4996900;28;20655;-83
2023/06/30 13:30:12;;;;;;;1.53;0.20;;;;;;;;;;5011893;28;20431;-83
2023/06/30 13:32:39;;;;;;;1.33;0.57;;;;;;;;;;5011720;28;20179;-82
2023/06/30 13:35:05;;;;;;;5.37;0.67;;;;;;;;;;4996638;28;20415;-83
2023/06/30 13:37:31;;;;;;;1.60;0.20;;;;;;;;;;4996576;28;20817;-84
2023/06/30 13:39:57;;;;;;;1.73;0.20;;;;;;;;;;4996171;28;20478;-83
2023/06/30 13:42:24;;;;;;;1.27;0.20;;;;;;;;;;4996657;28;20230;-82
2023/06/30 13:44:50;;;;;;;2.97;0.30;;;;;;;;;;4996511;28;20415;-83
2023/06/30 13:47:16;;;;;;;1.70;0.30;;;;;;;;;;5007121;28;20421;-82
2023/06/30 13:49:41;;;;;;;2.00;0.23;;;;;;;;;;5015859;28;20174;-81
2023/06/30 13:52:11;;;;;;;1.40;0.20;;;;;;;;;;5014600;28;20422;-83
2023/06/30 13:54:40;;;;;;;2.20;0.20;;;;;;;;;;5015554;28;20384;-82
2023/06/30 13:57:07;;;;;;;4.47;0.57;;;;;;;;;;5014659;28;20418;-82
2023/06/30 13:59:33;;;;;;;4.50;0.70;;;;;;;;;;5015754;28;20477;-82
2023/06/30 14:01:59;;;;;;;0.97;0.30;;;;;;;;;;5014395;28;20422;-82
2023/06/30 14:04:24;;;;;;;1.47;0.40;;;;;;;;;;5015818;28;20695;-83
2023/06/30 14:06:50;;;;;;;1.10;0.20;;;;;;;;;;5015661;28;20240;-83
2023/06/30 14:09:16;;;;;;;0.63;0.20;;;;;;;;;;5015546;28;20222;-83
2023/06/30 14:11:42;;;;;;;1.80;0.80;;;;;;;;;;5015418;28;20650;-83
2023/06/30 14:14:08;;;;;;;2.80;0.30;;;;;;;;;;5015198;28;20186;-82
2023/06/30 14:16:34;;;;;;;1.90;0.53;;;;;;;;;;5010357;28;20411;-83
2023/06/30 14:19:05;;;;;;;2.10;0.43;;;;;;;;;;5014458;28;20520;-82
2023/06/30 14:21:31;;;;;;;2.53;0.40;;;;;;;;;;5015535;28;20406;-83
2023/06/30 14:23:57;;;;;;;1.30;0.67;;;;;;;;;;5015300;28;20432;-84
2023/06/30 14:26:24;;;;;;;1.20;0.50;;;;;;;;;;5014994;28;20414;-83
2023/06/30 14:28:50;;;;;;;2.03;0.30;;;;;;;;;;5015261;28;20501;-82
2023/06/30 14:31:16;;;;;;;2.20;0.40;;;;;;;;;;5015204;28;20514;-83
2023/06/30 14:33:42;;;;;;;2.00;0.37;;;;;;;;;;5015240;28;20849;-83
2023/06/30 14:36:08;;;;;;;1.33;0.30;;;;;;;;;;5013960;28;20182;-82
2023/06/30 14:38:34;;;;;;;1.77;0.53;;;;;;;;;;5000396;28;20628;-83
2023/06/30 14:41:00;;;;;;;2.03;0.80;;;;;;;;;;4995092;28;20422;-83